createdAt,value
2022-11-19T00:02:03.911Z,100.00
2022-11-19T00:04:31.669Z,100.00
2022-11-19T00:06:59.404Z,100.00
2022-11-19T00:09:27.109Z,100.00
2022-11-19T00:12:13.735Z,100.00
2022-11-19T00:14:41.400Z,100.00
2022-11-19T00:17:09.090Z,100.00
2022-11-19T00:19:37.368Z,100.00
2022-11-19T00:22:07.513Z,100.00
2022-11-19T00:24:35.127Z,100.00
2022-11-19T00:27:03.112Z,100.00
2022-11-19T00:29:31.095Z,100.00
2022-11-19T00:31:58.672Z,100.00
2022-11-19T00:34:26.467Z,100.00
2022-11-19T00:36:54.254Z,100.00
2022-11-19T00:39:22.412Z,100.00
2022-11-19T00:41:50.080Z,100.00
2022-11-19T00:44:18.491Z,100.00
2022-11-19T00:46:46.080Z,100.00
2022-11-19T00:49:13.665Z,100.00
2022-11-19T00:51:41.164Z,100.00
2022-11-19T00:54:08.801Z,100.00
2022-11-19T00:56:36.376Z,100.00
2022-11-19T00:59:04.273Z,100.00
2022-11-19T01:01:32.048Z,100.00
2022-11-19T01:03:59.844Z,100.00
2022-11-19T01:06:28.403Z,100.00
2022-11-19T01:08:56.519Z,100.00
2022-11-19T01:11:26.239Z,100.00
2022-11-19T01:13:53.996Z,100.00
2022-11-19T01:16:27.515Z,100.00
2022-11-19T01:18:57.390Z,100.00
2022-11-19T01:21:27.952Z,100.00
2022-11-19T01:23:56.020Z,100.00
2022-11-19T01:26:24.275Z,100.00
2022-11-19T01:28:53.052Z,100.00
2022-11-19T01:31:23.451Z,100.00
2022-11-19T01:33:51.610Z,100.00
2022-11-19T01:36:20.784Z,100.00
2022-11-19T01:38:51.252Z,100.00
2022-11-19T01:41:24.115Z,100.00
2022-11-19T01:43:53.458Z,100.00
2022-11-19T01:46:23.708Z,100.00
2022-11-19T01:49:06.015Z,100.00
2022-11-19T01:51:36.927Z,100.00
2022-11-19T01:54:33.835Z,100.00
2022-11-19T01:57:07.924Z,100.00
2022-11-19T01:59:35.552Z,100.00
2022-11-19T02:02:03.353Z,100.00
2022-11-19T02:04:31.442Z,100.00
2022-11-19T02:06:59.992Z,100.00
2022-11-19T02:09:27.903Z,100.00
2022-11-19T02:12:24.030Z,100.00
2022-11-19T02:15:10.969Z,100.00
2022-11-19T02:17:53.452Z,100.00
2022-11-19T02:20:27.089Z,100.00
2022-11-19T02:23:29.031Z,100.00
2022-11-19T02:26:11.982Z,100.00
2022-11-19T02:28:50.208Z,100.00
2022-11-19T02:31:29.830Z,100.00
2022-11-19T02:34:02.410Z,100.00
2022-11-19T02:36:47.643Z,100.00
2022-11-19T02:39:25.306Z,100.00
2022-11-19T02:41:57.099Z,100.00
2022-11-19T02:44:58.950Z,100.00
2022-11-19T02:47:45.785Z,100.00
2022-11-19T02:50:19.402Z,100.00
2022-11-19T02:52:47.529Z,100.00
2022-11-19T02:55:17.079Z,100.00
2022-11-19T02:57:52.746Z,100.00
2022-11-19T03:00:38.844Z,100.00
2022-11-19T03:03:30.730Z,100.00
2022-11-19T03:06:06.047Z,100.00
2022-11-19T03:08:33.793Z,100.00
2022-11-19T03:11:21.579Z,100.00
2022-11-19T03:14:20.099Z,100.00
2022-11-19T03:17:03.470Z,100.00
2022-11-19T03:19:47.087Z,100.00
2022-11-19T03:22:38.083Z,100.00
2022-11-19T03:25:13.162Z,100.00
2022-11-19T03:27:41.728Z,100.00
2022-11-19T03:30:11.347Z,100.00
2022-11-19T03:32:43.474Z,100.00
2022-11-19T03:35:14.574Z,100.00
2022-11-19T03:37:43.065Z,100.00
2022-11-19T03:40:11.396Z,100.00
2022-11-19T03:42:39.539Z,100.00
2022-11-19T03:45:16.291Z,100.00
2022-11-19T03:47:45.130Z,100.00
2022-11-19T03:50:25.559Z,100.00
2022-11-19T03:52:53.257Z,100.00
2022-11-19T03:55:22.454Z,100.00
2022-11-19T03:57:50.235Z,100.00
2022-11-19T04:00:18.170Z,100.00
2022-11-19T04:02:45.973Z,100.00
2022-11-19T04:05:13.746Z,100.00
2022-11-19T04:07:41.519Z,100.00
2022-11-19T04:10:09.510Z,100.00
2022-11-19T04:12:38.684Z,100.00
2022-11-19T04:15:06.943Z,100.00
2022-11-19T04:17:35.118Z,100.00
2022-11-19T04:20:02.777Z,100.00
2022-11-19T04:22:31.326Z,100.00
2022-11-19T04:24:59.062Z,100.00
2022-11-19T04:27:26.938Z,100.00
2022-11-19T04:29:56.677Z,100.00
2022-11-19T04:32:24.539Z,100.00
2022-11-19T04:34:52.878Z,100.00
2022-11-19T04:37:20.644Z,100.00
2022-11-19T04:39:50.469Z,100.00
2022-11-19T04:42:18.313Z,100.00
2022-11-19T04:44:46.428Z,100.00
2022-11-19T04:47:14.124Z,100.00
2022-11-19T04:49:42.091Z,100.00
2022-11-19T04:52:10.008Z,100.00
2022-11-19T04:54:38.126Z,100.00
2022-11-19T04:57:05.930Z,100.00
2022-11-19T04:59:34.771Z,100.00
2022-11-19T05:02:02.522Z,100.00
2022-11-19T05:04:31.642Z,100.00
2022-11-19T05:06:59.661Z,100.00
2022-11-19T05:09:27.368Z,100.00
2022-11-19T05:11:55.139Z,100.00
2022-11-19T05:14:24.798Z,100.00
2022-11-19T05:16:56.744Z,100.00
2022-11-19T05:19:24.426Z,100.00
2022-11-19T05:21:52.835Z,100.00
2022-11-19T05:24:21.270Z,100.00
2022-11-19T05:26:49.598Z,100.00
2022-11-19T05:29:17.664Z,100.00
2022-11-19T05:31:45.991Z,100.00
2022-11-19T05:34:14.476Z,100.00
2022-11-19T05:36:42.990Z,100.00
2022-11-19T05:39:10.679Z,100.00
2022-11-19T05:41:39.842Z,100.00
2022-11-19T05:44:07.647Z,100.00
2022-11-19T05:46:36.802Z,100.00
2022-11-19T05:49:05.231Z,100.00
2022-11-19T05:51:33.260Z,100.00
2022-11-19T05:54:01.097Z,100.00
2022-11-19T05:56:29.787Z,100.00
2022-11-19T05:58:57.498Z,100.00
2022-11-19T06:01:26.393Z,100.00
2022-11-19T06:03:54.175Z,100.00
2022-11-19T06:06:22.254Z,100.00
2022-11-19T06:08:50.202Z,100.00
2022-11-19T06:11:36.594Z,100.00
2022-11-19T06:14:04.618Z,100.00
2022-11-19T06:16:32.261Z,100.00
2022-11-19T08:18:49.145Z,100.00
2022-11-19T08:21:17.624Z,100.00
2022-11-19T08:23:46.453Z,100.00
2022-11-19T08:26:14.400Z,100.00
2022-11-19T08:28:43.044Z,100.00
2022-11-19T08:31:11.114Z,100.00
2022-11-19T08:33:43.563Z,100.00
2022-11-19T08:36:14.323Z,100.00
2022-11-19T08:41:59.503Z,100.00
2022-11-19T08:44:28.699Z,100.00
2022-11-19T08:48:23.222Z,100.00
2022-11-19T08:51:03.179Z,100.00
2022-11-19T08:53:32.851Z,100.00
2022-11-19T08:56:08.321Z,100.00
2022-11-19T08:58:36.449Z,100.00
2022-11-19T09:01:12.602Z,100.00
2022-11-19T09:03:40.812Z,100.00
2022-11-19T09:06:08.798Z,100.00
2022-11-19T09:08:38.814Z,100.00
2022-11-19T09:11:12.218Z,100.00
2022-11-19T09:13:42.113Z,100.00
2022-11-19T09:16:10.591Z,100.00
2022-11-19T09:18:42.552Z,100.00
2022-11-19T09:21:11.931Z,100.00
2022-11-19T09:23:43.213Z,100.00
2022-11-19T09:26:15.807Z,100.00
2022-11-19T09:28:44.238Z,100.00
2022-11-19T09:31:15.169Z,100.00
2022-11-19T09:33:53.211Z,100.00
2022-11-19T09:36:30.958Z,100.00
2022-11-19T09:39:04.299Z,100.00
2022-11-19T09:41:48.162Z,100.00
2022-11-19T09:44:28.537Z,100.00
2022-11-19T09:47:05.488Z,100.00
2022-11-19T09:50:02.907Z,100.00
2022-11-19T09:52:50.648Z,100.00
2022-11-19T09:55:46.401Z,100.00
2022-11-19T09:58:56.678Z,100.00
2022-11-19T10:01:35.863Z,100.00
2022-11-19T10:04:12.977Z,100.00
2022-11-19T10:12:30.990Z,100.00
2022-11-19T10:24:18.587Z,100.00
2022-11-19T10:27:04.347Z,100.00
2022-11-19T10:29:35.401Z,100.00
2022-11-19T10:32:27.022Z,100.00
2022-11-19T10:34:58.910Z,100.00
2022-11-19T10:37:27.262Z,100.00
2022-11-19T10:40:02.659Z,100.00
2022-11-19T10:42:36.509Z,100.00
2022-11-19T10:45:18.505Z,100.00
2022-11-19T10:48:07.642Z,100.00
2022-11-19T10:50:37.508Z,100.00
2022-11-19T10:53:23.324Z,100.00
2022-11-19T10:55:54.886Z,96.98
2022-11-19T10:58:41.215Z,94.74
2022-11-19T11:01:19.497Z,92.98
2022-11-19T11:03:52.712Z,93.91
2022-11-19T11:06:22.188Z,91.10
2022-11-19T11:08:54.609Z,90.34
2022-11-19T11:11:50.164Z,89.45
2022-11-19T11:14:39.017Z,88.70
2022-11-19T11:17:18.952Z,88.02
2022-11-19T11:19:59.553Z,89.40
2022-11-19T11:22:28.148Z,89.45
2022-11-19T11:24:56.560Z,88.74
2022-11-19T11:27:34.847Z,88.15
2022-11-19T11:30:14.719Z,89.00
2022-11-19T11:32:47.578Z,86.59
2022-11-19T11:35:30.902Z,85.03
2022-11-19T11:38:00.097Z,84.61
2022-11-19T11:40:28.035Z,86.10
2022-11-19T11:42:56.464Z,84.81
2022-11-19T11:45:35.379Z,84.36
2022-11-19T11:48:08.526Z,85.54
2022-11-19T11:50:36.538Z,85.37
2022-11-19T11:53:09.542Z,85.95
2022-11-19T11:55:39.449Z,87.43
2022-11-19T11:58:31.138Z,88.34
2022-11-19T12:01:16.061Z,90.44
2022-11-19T12:03:55.775Z,89.53
2022-11-19T12:06:35.975Z,90.21
2022-11-19T12:09:25.517Z,91.14
2022-11-19T12:12:03.072Z,91.56
2022-11-19T12:14:39.133Z,93.19
2022-11-19T12:17:19.168Z,94.02
2022-11-19T12:20:07.035Z,93.35
2022-11-19T12:22:42.318Z,93.78
2022-11-19T12:25:32.554Z,93.10
2022-11-19T12:28:21.787Z,92.98
2022-11-19T12:31:22.318Z,92.98
2022-11-19T12:34:29.845Z,92.97
2022-11-19T12:37:32.837Z,92.34
2022-11-19T12:40:41.183Z,91.99
2022-11-19T12:43:27.976Z,93.03
2022-11-19T12:46:14.790Z,93.52
2022-11-19T12:48:54.948Z,92.82
2022-11-19T12:51:31.667Z,93.61
2022-11-19T12:54:23.164Z,93.54
2022-11-19T12:57:21.492Z,93.77
2022-11-19T13:00:03.850Z,93.83
2022-11-19T13:02:58.005Z,93.14
2022-11-19T13:05:45.552Z,92.73
2022-11-19T13:08:35.253Z,91.67
2022-11-19T13:11:25.310Z,92.49
2022-11-19T17:13:57.856Z,91.86
2022-11-19T17:16:27.333Z,91.99
2022-11-19T17:18:56.815Z,92.25
2022-11-19T17:21:31.251Z,92.38
2022-11-19T17:24:02.371Z,91.38
2022-11-19T17:26:30.431Z,92.25
2022-11-19T17:29:01.107Z,92.33
2022-11-19T17:31:30.668Z,92.11
2022-11-19T17:34:12.535Z,92.92
2022-11-19T17:36:43.933Z,92.96
2022-11-19T17:39:12.282Z,92.76
2022-11-19T17:42:02.008Z,92.58
2022-11-19T17:44:32.053Z,93.45
2022-11-19T17:46:59.689Z,94.28
2022-11-19T17:49:27.532Z,93.56
2022-11-19T17:51:57.858Z,93.58
2022-11-19T17:54:25.760Z,93.62
2022-11-19T17:56:53.671Z,93.88
2022-11-19T17:59:22.459Z,93.53
2022-11-19T18:01:50.339Z,93.96
2022-11-19T18:04:19.265Z,92.91
2022-11-19T18:06:47.542Z,93.31
2022-11-19T18:09:17.224Z,93.28
2022-11-19T18:11:47.578Z,94.14
2022-11-19T18:14:15.319Z,94.22
2022-11-19T18:16:45.264Z,94.41
2022-11-19T18:19:14.938Z,94.58
2022-11-19T18:21:42.803Z,93.81
2022-11-19T18:24:11.375Z,94.76
2022-11-19T18:26:39.425Z,95.01
2022-11-19T18:29:08.281Z,94.73
2022-11-19T18:31:49.555Z,93.01
2022-11-19T18:34:21.333Z,93.98
2022-11-19T18:36:49.956Z,94.28
2022-11-19T18:39:17.722Z,94.75
2022-11-19T18:41:45.353Z,93.41
2022-11-19T18:44:32.498Z,93.34
2022-11-19T18:47:01.240Z,94.56
2022-11-19T18:49:29.575Z,95.75
2022-11-19T18:51:57.510Z,95.71
2022-11-19T18:54:25.311Z,95.58
2022-11-19T18:56:53.690Z,93.52
2022-11-19T18:59:21.833Z,93.50
2022-11-19T19:01:52.368Z,93.95
2022-11-19T19:04:20.527Z,94.71
2022-11-19T19:06:48.569Z,95.50
2022-11-19T19:09:20.685Z,95.04
2022-11-19T19:12:12.593Z,93.43
2022-11-19T19:14:45.620Z,92.83
2022-11-19T19:17:15.934Z,92.74
2022-11-19T19:19:44.476Z,92.27
2022-11-19T19:22:12.113Z,93.02
2022-11-19T19:24:40.630Z,92.55
2022-11-19T19:27:08.276Z,92.91
2022-11-19T19:29:36.835Z,92.65
2022-11-19T19:32:04.902Z,92.20
2022-11-19T19:34:32.519Z,93.02
2022-11-19T19:37:00.757Z,93.16
2022-11-19T19:39:28.670Z,92.92
2022-11-19T19:41:57.793Z,92.77
2022-11-19T19:44:25.487Z,91.54
2022-11-19T19:46:53.300Z,92.61
2022-11-19T19:49:21.700Z,92.08
2022-11-19T19:51:51.125Z,91.65
2022-11-19T19:54:18.864Z,91.44
2022-11-19T19:56:46.758Z,91.53
2022-11-19T19:59:14.694Z,91.30
2022-11-19T20:01:46.674Z,92.05
2022-11-19T20:04:15.158Z,92.00
2022-11-19T20:06:47.084Z,92.08
2022-11-19T20:09:14.942Z,92.25
2022-11-19T20:11:45.371Z,92.49
2022-11-19T20:14:13.298Z,92.40
2022-11-19T20:16:43.207Z,91.62
2022-11-19T20:19:15.032Z,91.83
2022-11-19T20:21:43.132Z,91.77
2022-11-19T20:24:13.681Z,92.00
2022-11-19T20:26:42.448Z,91.44
2022-11-19T20:29:14.401Z,92.44
2022-11-19T20:31:45.743Z,92.31
2022-11-19T20:34:13.961Z,92.21
2022-11-19T20:36:41.964Z,92.21
2022-11-19T20:39:09.772Z,92.21
2022-11-19T20:41:57.010Z,92.33
2022-11-19T20:44:24.893Z,92.26
2022-11-19T20:46:54.757Z,92.22
2022-11-19T20:49:27.140Z,92.37
2022-11-19T20:51:55.561Z,92.64
2022-11-19T20:54:23.906Z,92.42
2022-11-19T20:56:52.585Z,92.71
2022-11-19T20:59:21.016Z,93.13
2022-11-19T21:01:49.945Z,92.80
2022-11-19T21:04:19.332Z,92.68
2022-11-19T21:06:50.155Z,92.37
2022-11-19T21:09:20.160Z,92.16
2022-11-19T21:11:48.266Z,92.26
2022-11-19T21:14:16.387Z,92.13
2022-11-19T21:16:46.437Z,91.02
2022-11-19T21:19:14.531Z,91.60
2022-11-19T21:21:44.363Z,92.00
2022-11-19T21:24:12.395Z,90.63
2022-11-19T21:26:42.807Z,91.17
2022-11-19T21:29:11.178Z,91.35
2022-11-19T21:31:39.922Z,91.51
2022-11-19T21:34:09.504Z,91.60
2022-11-19T21:36:37.519Z,92.34
2022-11-19T21:39:05.458Z,92.56
2022-11-19T21:41:34.194Z,92.90
2022-11-19T21:44:02.477Z,92.18
2022-11-19T21:46:30.561Z,91.62
2022-11-19T22:02:06.722Z,90.21
2022-11-19T22:04:34.624Z,90.52
2022-11-19T22:07:02.849Z,91.04
2022-11-19T22:09:30.635Z,91.36
2022-11-19T22:11:58.463Z,91.08
2022-11-19T22:14:26.458Z,90.45
2022-11-19T22:16:54.799Z,90.10
2022-11-19T22:19:23.213Z,90.25
2022-11-19T22:21:51.717Z,91.15
2022-11-19T22:24:19.590Z,91.78
2022-11-19T22:26:48.319Z,91.53
2022-11-19T22:29:16.302Z,91.52
2022-11-19T22:31:44.390Z,92.03
2022-11-19T22:34:12.414Z,92.06
2022-11-19T22:36:41.311Z,91.33
2022-11-19T22:39:09.459Z,91.97
2022-11-19T22:41:37.917Z,92.00
2022-11-19T22:44:05.780Z,92.26
2022-11-19T22:46:34.273Z,92.11
2022-11-19T22:49:02.171Z,92.36
2022-11-19T22:51:29.884Z,91.21
2022-11-19T22:53:57.623Z,91.89
2022-11-19T22:56:26.895Z,91.97
2022-11-19T22:58:54.894Z,92.94
2022-11-19T23:01:27.587Z,92.14
2022-11-19T23:03:56.370Z,91.63
2022-11-19T23:06:24.210Z,92.18
2022-11-19T23:08:52.027Z,92.19
2022-11-19T23:11:39.687Z,92.62
2022-11-19T23:14:09.224Z,92.30
2022-11-19T23:16:38.826Z,91.88
2022-11-19T23:19:06.639Z,91.84
2022-11-19T23:21:34.347Z,91.85
2022-11-19T23:24:04.778Z,92.46
2022-11-19T23:26:33.662Z,92.47
2022-11-19T23:29:02.329Z,92.79
2022-11-19T23:31:32.070Z,92.73
2022-11-19T23:34:00.323Z,93.18
2022-11-19T23:36:32.780Z,93.07
2022-11-19T23:39:00.670Z,92.24
2022-11-19T23:41:28.408Z,92.64
2022-11-19T23:43:56.817Z,93.02
2022-11-19T23:46:32.496Z,92.95
2022-11-19T23:49:00.239Z,92.70
2022-11-19T23:51:29.614Z,91.73
2022-11-19T23:53:57.412Z,91.99
2022-11-19T23:56:26.466Z,92.91
2022-11-19T23:58:55.185Z,92.31
